createdAt,value
2022-08-17T00:00:42.639Z,99.97
2022-08-17T00:01:29.613Z,99.87
2022-08-17T00:02:29.439Z,99.99
2022-08-17T00:03:29.514Z,99.99
2022-08-17T00:04:29.414Z,99.99
2022-08-17T00:05:29.523Z,99.99
2022-08-17T00:06:29.343Z,99.99
2022-08-17T00:07:29.503Z,99.99
2022-08-17T00:08:29.348Z,99.99
2022-08-17T00:09:29.359Z,99.99
2022-08-17T00:10:29.358Z,99.99
2022-08-17T00:11:29.508Z,99.99
2022-08-17T00:12:41.357Z,99.99
2022-08-17T00:13:29.238Z,99.99
2022-08-17T00:14:29.410Z,99.99
2022-08-17T00:15:29.193Z,99.99
2022-08-17T00:16:53.432Z,99.99
2022-08-17T00:17:29.188Z,99.99
2022-08-17T00:19:06.865Z,99.99
2022-08-17T00:19:29.183Z,99.99
2022-08-17T00:20:30.456Z,99.99
2022-08-17T00:22:29.598Z,99.99
2022-08-17T00:22:38.302Z,99.99
2022-08-17T00:23:29.183Z,99.99
2022-08-17T00:24:29.073Z,99.99
2022-08-17T00:25:29.244Z,99.99
2022-08-17T00:26:44.242Z,99.99
2022-08-17T00:27:29.175Z,99.99
2022-08-17T00:28:29.013Z,99.99
2022-08-17T00:29:29.194Z,99.99
2022-08-17T00:30:29.090Z,99.99
2022-08-17T00:31:28.989Z,99.99
2022-08-17T00:33:23.148Z,99.99
2022-08-17T00:33:29.631Z,99.99
2022-08-17T00:34:28.939Z,99.99
2022-08-17T00:35:29.179Z,99.99
2022-08-17T00:36:29.098Z,99.99
2022-08-17T00:37:28.898Z,99.99
2022-08-17T00:38:28.894Z,99.99
2022-08-17T00:39:28.923Z,99.99
2022-08-17T00:40:40.660Z,99.99
2022-08-17T00:41:28.874Z,99.99
2022-08-17T00:42:31.241Z,99.99
2022-08-17T00:43:28.853Z,99.99
2022-08-17T00:44:31.298Z,99.99
2022-08-17T00:45:28.853Z,99.99
2022-08-17T00:46:28.785Z,99.99
2022-08-17T00:47:28.864Z,99.99
2022-08-17T00:48:30.107Z,99.99
2022-08-17T00:49:28.854Z,99.99
2022-08-17T00:50:28.738Z,99.99
2022-08-17T00:51:28.872Z,99.99
2022-08-17T00:52:28.708Z,99.99
2022-08-17T00:53:28.869Z,99.99
2022-08-17T00:54:28.807Z,99.99
2022-08-17T00:55:28.870Z,99.99
2022-08-17T00:56:28.708Z,99.99
2022-08-17T00:57:28.627Z,99.99
2022-08-17T00:58:36.395Z,99.99
2022-08-17T00:59:28.857Z,99.99
2022-08-17T01:00:28.807Z,99.99
2022-08-17T01:01:28.967Z,99.99
2022-08-17T01:02:28.704Z,99.99
2022-08-17T01:03:28.563Z,99.99
2022-08-17T01:04:28.555Z,99.99
2022-08-17T01:05:28.543Z,99.99
2022-08-17T01:06:28.582Z,99.99
2022-08-17T01:07:28.553Z,99.99
2022-08-17T01:08:28.484Z,99.99
2022-08-17T01:09:28.534Z,99.99
2022-08-17T01:11:00.629Z,99.99
2022-08-17T01:11:28.560Z,99.99
2022-08-17T01:12:28.528Z,99.99
2022-08-17T01:13:28.557Z,99.99
2022-08-17T01:14:28.428Z,99.99
2022-08-17T01:15:28.540Z,99.99
2022-08-17T01:16:28.395Z,99.99
2022-08-17T01:17:28.373Z,99.99
2022-08-17T01:18:28.449Z,99.99
2022-08-17T01:19:28.338Z,99.99
2022-08-17T01:20:28.378Z,99.99
2022-08-17T01:21:28.307Z,99.99
2022-08-17T01:22:28.404Z,99.99
2022-08-17T01:23:28.554Z,99.99
2022-08-17T01:24:28.463Z,99.99
2022-08-17T01:25:28.264Z,99.99
2022-08-17T01:26:28.372Z,99.99
2022-08-17T01:27:28.243Z,99.99
2022-08-17T01:28:53.426Z,99.99
2022-08-17T01:29:28.223Z,99.99
2022-08-17T01:30:58.469Z,99.99
2022-08-17T01:31:28.213Z,99.99
2022-08-17T01:32:28.169Z,99.99
2022-08-17T01:33:28.218Z,99.99
2022-08-17T01:34:42.814Z,99.99
2022-08-17T01:35:28.299Z,99.99
2022-08-17T01:36:28.380Z,99.99
2022-08-17T01:37:28.228Z,99.99
2022-08-17T01:38:28.088Z,99.99
2022-08-17T01:39:28.108Z,99.99
2022-08-17T01:40:28.062Z,99.99
2022-08-17T01:41:28.326Z,99.99
2022-08-17T01:42:28.059Z,99.99
2022-08-17T01:43:28.043Z,99.99
2022-08-17T01:44:28.053Z,99.99
2022-08-17T01:45:28.232Z,99.99
2022-08-17T01:46:28.062Z,99.99
2022-08-17T01:47:28.323Z,99.99
2022-08-17T01:48:28.065Z,99.99
2022-08-17T01:49:27.954Z,99.99
2022-08-17T01:50:28.064Z,99.99
2022-08-17T01:51:27.933Z,99.99
2022-08-17T01:52:27.903Z,99.99
2022-08-17T01:53:27.973Z,99.99
2022-08-17T01:54:27.888Z,99.99
2022-08-17T01:55:27.919Z,99.99
2022-08-17T01:56:28.067Z,99.99
2022-08-17T01:57:27.919Z,99.99
2022-08-17T01:58:27.879Z,99.99
2022-08-17T01:59:27.898Z,99.99
2022-08-17T02:00:28.101Z,99.99
2022-08-17T02:01:27.942Z,99.99
2022-08-17T02:02:31.044Z,99.99
2022-08-17T02:03:27.977Z,99.99
2022-08-17T02:04:27.759Z,99.99
2022-08-17T02:05:27.744Z,99.99
2022-08-17T02:06:28.494Z,99.99
2022-08-17T02:07:27.723Z,99.99
2022-08-17T02:08:39.099Z,99.99
2022-08-17T02:09:29.983Z,99.99
2022-08-17T02:10:34.078Z,99.99
2022-08-17T02:11:27.653Z,99.99
2022-08-17T02:12:39.158Z,99.99
2022-08-17T02:13:27.623Z,99.99
2022-08-17T02:14:27.733Z,99.99
2022-08-17T02:15:27.712Z,99.99
2022-08-17T02:16:27.598Z,99.99
2022-08-17T02:17:27.597Z,99.99
2022-08-17T02:18:27.748Z,99.99
2022-08-17T02:19:27.588Z,99.99
2022-08-17T02:20:41.877Z,99.99
2022-08-17T02:21:27.659Z,99.99
2022-08-17T02:22:27.738Z,99.99
2022-08-17T02:23:27.488Z,99.99
2022-08-17T02:24:59.869Z,99.99
2022-08-17T02:25:27.578Z,99.99
2022-08-17T02:26:27.863Z,99.99
2022-08-17T02:27:27.603Z,99.99
2022-08-17T02:28:27.443Z,99.99
2022-08-17T02:29:27.594Z,99.99
2022-08-17T02:30:30.914Z,99.99
2022-08-17T02:31:27.605Z,99.99
2022-08-17T02:32:28.683Z,99.99
2022-08-17T02:33:42.634Z,99.99
2022-08-17T02:34:27.412Z,99.99
2022-08-17T02:35:27.574Z,99.99
2022-08-17T02:36:27.656Z,99.99
2022-08-17T02:37:27.600Z,99.99
2022-08-17T02:38:27.368Z,99.99
2022-08-17T02:39:27.335Z,99.99
2022-08-17T02:40:35.788Z,99.99
2022-08-17T02:41:27.268Z,99.99
2022-08-17T02:42:27.251Z,99.99
2022-08-17T02:43:27.269Z,99.99
2022-08-17T02:44:35.459Z,99.99
2022-08-17T02:45:27.269Z,99.99
2022-08-17T02:46:27.418Z,99.99
2022-08-17T02:47:27.259Z,99.99
2022-08-17T02:48:30.859Z,99.99
2022-08-17T02:49:27.364Z,99.99
2022-08-17T02:50:27.133Z,99.99
2022-08-17T02:51:27.273Z,99.99
2022-08-17T02:52:42.330Z,99.99
2022-08-17T02:53:27.273Z,99.99
2022-08-17T02:54:39.415Z,99.99
2022-08-17T02:55:27.363Z,99.99
2022-08-17T02:56:27.093Z,99.99
2022-08-17T02:57:27.256Z,99.99
2022-08-17T02:58:35.021Z,99.99
2022-08-17T02:59:27.028Z,99.99
2022-08-17T03:00:27.110Z,99.99
2022-08-17T03:01:27.146Z,99.99
2022-08-17T03:02:27.108Z,99.99
2022-08-17T03:03:27.258Z,99.99
2022-08-17T03:04:27.108Z,99.99
2022-08-17T03:05:26.939Z,99.99
2022-08-17T03:06:26.999Z,99.99
2022-08-17T03:07:26.939Z,99.99
2022-08-17T03:08:27.113Z,99.99
2022-08-17T03:09:26.943Z,99.99
2022-08-17T03:10:26.873Z,99.99
2022-08-17T03:11:26.958Z,99.99
2022-08-17T03:12:26.913Z,99.99
2022-08-17T03:13:26.934Z,99.99
2022-08-17T03:14:26.803Z,99.99
2022-08-17T03:15:26.944Z,99.99
2022-08-17T03:16:26.843Z,99.99
2022-08-17T03:17:26.774Z,99.99
2022-08-17T03:18:26.775Z,99.99
2022-08-17T03:19:26.934Z,99.99
2022-08-17T03:20:26.786Z,99.99
2022-08-17T03:21:26.738Z,99.99
2022-08-17T03:22:36.583Z,99.99
2022-08-17T03:23:27.286Z,99.99
2022-08-17T03:24:28.780Z,99.99
2022-08-17T03:25:26.664Z,99.99
2022-08-17T03:26:29.765Z,99.99
2022-08-17T03:27:26.628Z,99.99
2022-08-17T03:28:26.878Z,99.99
2022-08-17T03:29:26.618Z,99.99
2022-08-17T03:30:26.778Z,99.99
2022-08-17T03:31:26.626Z,99.99
2022-08-17T03:32:26.584Z,99.99
2022-08-17T03:33:26.633Z,99.99
2022-08-17T03:34:26.903Z,99.99
2022-08-17T03:35:26.646Z,99.99
2022-08-17T03:36:26.802Z,99.99
2022-08-17T03:37:26.613Z,99.99
2022-08-17T03:38:26.505Z,99.99
2022-08-17T03:39:26.649Z,99.99
2022-08-17T03:40:34.415Z,99.99
2022-08-17T03:41:26.614Z,99.99
2022-08-17T03:42:32.214Z,99.99
2022-08-17T03:43:26.448Z,99.99
2022-08-17T03:44:26.468Z,99.99
2022-08-17T03:45:26.639Z,99.99
2022-08-17T03:46:27.591Z,99.99
2022-08-17T03:47:26.378Z,99.99
2022-08-17T03:48:26.480Z,99.99
2022-08-17T03:49:26.328Z,99.99
2022-08-17T03:50:26.458Z,99.99
2022-08-17T03:51:26.389Z,99.99
2022-08-17T03:52:26.459Z,99.99
2022-08-17T03:53:26.308Z,99.99
2022-08-17T03:54:26.284Z,99.99
2022-08-17T03:55:35.860Z,99.99
2022-08-17T03:56:26.474Z,99.99
2022-08-17T03:57:26.394Z,99.99
2022-08-17T03:58:26.224Z,99.99
2022-08-17T03:59:26.305Z,99.99
2022-08-17T04:00:26.184Z,99.99
2022-08-17T04:01:26.357Z,99.99
2022-08-17T04:02:26.226Z,99.99
2022-08-17T04:03:26.143Z,99.99
2022-08-17T04:04:26.134Z,99.99
2022-08-17T04:05:26.128Z,99.99
2022-08-17T04:06:26.158Z,99.99
2022-08-17T04:07:26.317Z,99.99
2022-08-17T04:08:26.208Z,99.99
2022-08-17T04:09:26.059Z,99.99
2022-08-17T04:10:26.562Z,99.99
2022-08-17T04:11:26.299Z,99.99
2022-08-17T04:12:26.158Z,99.99
2022-08-17T04:13:26.068Z,99.99
2022-08-17T04:14:25.989Z,99.99
2022-08-17T04:15:25.979Z,99.99
2022-08-17T04:16:25.984Z,99.99
2022-08-17T04:17:26.003Z,99.99
2022-08-17T04:18:25.944Z,99.99
2022-08-17T04:19:26.054Z,99.99
2022-08-17T04:20:26.143Z,99.99
2022-08-17T04:21:25.903Z,99.99
2022-08-17T04:22:32.184Z,99.99
2022-08-17T04:23:25.974Z,99.99
2022-08-17T04:24:26.134Z,99.99
2022-08-17T04:25:25.895Z,99.99
2022-08-17T04:26:53.053Z,99.99
2022-08-17T04:27:25.830Z,99.99
2022-08-17T04:28:25.818Z,99.99
2022-08-17T04:29:25.999Z,99.99
2022-08-17T04:30:25.921Z,99.99
2022-08-17T04:31:25.759Z,99.99
2022-08-17T04:32:58.496Z,99.99
2022-08-17T04:33:25.748Z,99.99
2022-08-17T04:34:25.829Z,99.99
2022-08-17T04:35:25.980Z,99.99
2022-08-17T04:36:25.899Z,99.99
2022-08-17T04:37:25.669Z,99.99
2022-08-17T04:38:25.665Z,99.99
2022-08-17T04:39:25.712Z,99.99
2022-08-17T04:40:27.394Z,99.99
2022-08-17T04:41:25.750Z,99.99
2022-08-17T04:42:25.617Z,99.99
2022-08-17T04:43:25.593Z,99.99
2022-08-17T04:44:36.958Z,99.99
2022-08-17T04:45:25.643Z,99.99
2022-08-17T04:46:25.884Z,99.99
2022-08-17T04:47:25.653Z,99.99
2022-08-17T04:48:35.676Z,99.99
2022-08-17T04:49:25.668Z,99.99
2022-08-17T04:50:25.508Z,99.99
2022-08-17T04:51:25.748Z,99.99
2022-08-17T04:52:32.218Z,99.99
2022-08-17T04:53:25.459Z,99.99
2022-08-17T04:54:25.512Z,99.99
2022-08-17T04:55:25.668Z,99.99
2022-08-17T04:56:25.510Z,99.99
2022-08-17T04:57:25.758Z,99.99
2022-08-17T04:58:25.504Z,99.99
2022-08-17T04:59:25.379Z,99.99
2022-08-17T05:00:25.397Z,99.99
2022-08-17T05:01:25.447Z,99.99
2022-08-17T05:02:25.343Z,99.99
2022-08-17T05:03:25.424Z,99.99
2022-08-17T05:04:34.490Z,99.99
2022-08-17T05:05:25.354Z,99.99
2022-08-17T05:06:25.284Z,99.99
2022-08-17T05:07:28.372Z,99.99
2022-08-17T05:08:25.574Z,99.99
2022-08-17T05:09:25.336Z,99.99
2022-08-17T05:10:25.225Z,99.99
2022-08-17T05:11:25.353Z,99.99
2022-08-17T05:12:25.509Z,99.22
2022-08-17T05:13:25.366Z,98.77
2022-08-17T05:14:33.298Z,97.91
2022-08-17T05:15:25.334Z,96.01
2022-08-17T05:16:25.190Z,94.31
2022-08-17T05:17:25.339Z,89.90
2022-08-17T05:18:25.188Z,86.96
2022-08-17T05:19:25.408Z,83.19
2022-08-17T05:20:25.178Z,79.97
2022-08-17T05:21:25.079Z,77.15
2022-08-17T05:22:25.204Z,74.75
2022-08-17T05:23:25.054Z,73.82
2022-08-17T05:24:42.591Z,71.55
2022-08-17T05:25:25.726Z,71.15
2022-08-17T05:26:25.967Z,70.12
2022-08-17T05:27:25.006Z,68.66
2022-08-17T05:28:27.595Z,67.90
2022-08-17T05:29:35.166Z,65.58
2022-08-17T05:30:25.177Z,66.25
2022-08-17T05:31:25.118Z,63.83
2022-08-17T05:32:39.111Z,63.31
2022-08-17T05:33:25.028Z,62.78
2022-08-17T05:34:25.178Z,62.35
2022-08-17T05:35:25.029Z,61.63
2022-08-17T05:36:43.691Z,61.80
2022-08-17T05:37:25.105Z,60.75
2022-08-17T05:38:24.858Z,59.76
2022-08-17T05:39:24.894Z,59.36
2022-08-17T05:40:24.858Z,59.69
2022-08-17T05:41:25.020Z,60.44
2022-08-17T05:42:24.932Z,61.50
2022-08-17T05:43:24.873Z,60.61
2022-08-17T05:44:24.877Z,60.02
2022-08-17T05:45:42.781Z,59.79
2022-08-17T05:46:24.863Z,59.04
2022-08-17T05:47:24.754Z,58.81
2022-08-17T05:48:35.458Z,57.70
2022-08-17T05:49:24.740Z,57.18
2022-08-17T05:50:27.131Z,58.26
2022-08-17T05:51:24.704Z,58.33
2022-08-17T05:52:24.864Z,55.83
2022-08-17T05:53:24.719Z,54.82
2022-08-17T05:54:24.739Z,55.24
2022-08-17T05:55:24.721Z,56.23
2022-08-17T05:56:29.465Z,56.23
2022-08-17T05:57:24.710Z,54.93
2022-08-17T05:58:24.601Z,55.98
2022-08-17T05:59:24.710Z,55.68
2022-08-17T06:00:30.174Z,54.38
2022-08-17T06:01:24.800Z,53.88
2022-08-17T06:02:24.565Z,54.25
2022-08-17T06:03:24.695Z,54.13
2022-08-17T06:04:24.555Z,52.68
2022-08-17T06:05:24.513Z,53.56
2022-08-17T06:06:25.233Z,53.27
2022-08-17T06:07:24.702Z,52.23
2022-08-17T06:08:24.564Z,51.91
2022-08-17T06:09:28.905Z,51.84
2022-08-17T06:10:24.541Z,52.23
2022-08-17T06:11:24.700Z,51.91
2022-08-17T06:12:24.639Z,53.06
2022-08-17T06:13:24.430Z,51.37
2022-08-17T06:14:24.540Z,50.85
2022-08-17T06:15:24.399Z,49.77
2022-08-17T06:16:33.246Z,50.37
2022-08-17T06:17:24.390Z,50.78
2022-08-17T06:18:24.449Z,50.44
2022-08-17T06:19:24.379Z,50.71
2022-08-17T06:20:24.564Z,49.80
2022-08-17T06:21:27.452Z,48.50
2022-08-17T06:22:24.554Z,48.28
2022-08-17T06:23:24.386Z,47.23
2022-08-17T06:24:24.375Z,48.21
2022-08-17T06:25:24.385Z,49.11
2022-08-17T06:26:25.926Z,48.43
2022-08-17T06:27:24.375Z,48.92
2022-08-17T06:28:24.253Z,47.91
2022-08-17T06:29:24.220Z,47.91
2022-08-17T06:30:24.322Z,47.23
2022-08-17T06:31:24.223Z,47.20
2022-08-17T06:32:24.230Z,47.69
2022-08-17T06:33:24.179Z,46.98
2022-08-17T06:34:24.231Z,48.28
2022-08-17T06:35:27.721Z,49.14
2022-08-17T06:36:24.300Z,46.59
2022-08-17T06:37:24.380Z,46.89
2022-08-17T06:38:37.782Z,48.36
2022-08-17T06:39:24.526Z,48.16
2022-08-17T06:40:24.234Z,46.97
2022-08-17T06:41:24.083Z,45.76
2022-08-17T06:43:02.111Z,46.94
2022-08-17T06:43:24.064Z,46.26
2022-08-17T06:44:43.452Z,46.33
2022-08-17T06:45:24.084Z,45.65
2022-08-17T06:46:24.217Z,45.47
2022-08-17T06:47:28.692Z,45.08
2022-08-17T06:48:24.240Z,45.65
2022-08-17T06:49:24.099Z,45.16
2022-08-17T06:50:24.240Z,44.89
2022-08-17T06:51:23.970Z,46.04
2022-08-17T06:52:45.683Z,45.53
2022-08-17T06:53:24.142Z,44.59
2022-08-17T06:54:23.909Z,45.43
2022-08-17T06:55:24.079Z,44.45
2022-08-17T06:56:23.914Z,44.82
2022-08-17T06:57:23.915Z,44.80
2022-08-17T06:58:23.994Z,44.21
2022-08-17T06:59:24.075Z,43.63
2022-08-17T07:00:23.921Z,44.26
2022-08-17T07:01:23.871Z,44.59
2022-08-17T07:02:28.901Z,44.98
2022-08-17T07:03:23.864Z,45.84
2022-08-17T07:04:23.919Z,45.37
2022-08-17T07:05:23.788Z,46.86
2022-08-17T07:06:23.920Z,46.64
2022-08-17T07:07:23.778Z,47.33
2022-08-17T07:08:29.173Z,48.21
2022-08-17T07:09:23.820Z,46.81
2022-08-17T07:10:23.740Z,46.57
2022-08-17T07:11:23.739Z,45.76
2022-08-17T07:12:23.699Z,46.62
2022-08-17T07:13:23.796Z,45.65
2022-08-17T07:14:23.759Z,46.43
2022-08-17T07:15:23.784Z,45.76
2022-08-17T07:16:23.904Z,46.11
2022-08-17T07:17:47.058Z,44.92
2022-08-17T07:18:23.644Z,45.82
2022-08-17T07:19:23.764Z,46.00
2022-08-17T07:20:23.693Z,46.23
2022-08-17T07:21:26.465Z,46.50
2022-08-17T07:22:23.707Z,45.53
2022-08-17T07:23:23.758Z,45.97
2022-08-17T07:24:28.122Z,46.39
2022-08-17T07:25:23.819Z,45.85
2022-08-17T07:26:23.595Z,44.24
2022-08-17T07:27:23.749Z,45.00
2022-08-17T07:28:23.589Z,44.70
2022-08-17T07:29:23.749Z,44.80
2022-08-17T07:30:23.784Z,43.80
2022-08-17T07:31:23.746Z,44.60
2022-08-17T07:32:23.637Z,44.41
2022-08-17T07:33:23.744Z,44.60
2022-08-17T07:34:23.455Z,45.29
2022-08-17T07:35:23.493Z,45.80
2022-08-17T07:36:29.180Z,46.80
2022-08-17T07:37:23.414Z,45.70
2022-08-17T07:38:25.813Z,46.18
2022-08-17T07:39:23.440Z,47.94
2022-08-17T07:40:23.600Z,49.04
2022-08-17T07:41:23.501Z,47.26
2022-08-17T07:42:23.693Z,46.57
2022-08-17T07:43:23.768Z,47.50
2022-08-17T07:44:23.319Z,46.58
2022-08-17T07:45:23.419Z,44.73
2022-08-17T07:46:23.591Z,44.80
2022-08-17T07:47:23.445Z,44.97
2022-08-17T07:48:23.296Z,44.76
2022-08-17T07:49:23.263Z,43.99
2022-08-17T07:50:25.853Z,45.53
2022-08-17T07:51:23.245Z,45.23
2022-08-17T07:52:47.624Z,46.23
2022-08-17T07:53:23.413Z,45.19
2022-08-17T07:54:23.259Z,45.44
2022-08-17T07:55:23.188Z,43.90
2022-08-17T07:56:23.270Z,45.25
2022-08-17T07:57:26.650Z,44.34
2022-08-17T07:58:23.270Z,43.93
2022-08-17T07:59:23.539Z,44.01
2022-08-17T08:00:26.708Z,43.11
2022-08-17T08:01:23.207Z,42.21
2022-08-17T08:02:23.242Z,43.48
2022-08-17T08:03:24.638Z,42.60
2022-08-17T08:04:50.032Z,43.10
2022-08-17T08:05:25.138Z,44.58
2022-08-17T08:06:23.284Z,43.88
2022-08-17T08:07:23.094Z,43.71
2022-08-17T08:08:23.333Z,44.37
2022-08-17T08:09:23.094Z,44.24
2022-08-17T08:10:23.014Z,44.15
2022-08-17T08:11:23.105Z,43.85
2022-08-17T08:12:23.274Z,44.13
2022-08-17T08:13:23.234Z,43.79
2022-08-17T08:14:28.338Z,43.46
2022-08-17T08:15:23.110Z,42.56
2022-08-17T08:16:22.959Z,42.08
2022-08-17T08:17:22.938Z,41.80
2022-08-17T08:18:53.819Z,42.31
2022-08-17T08:19:22.970Z,42.70
2022-08-17T08:20:37.720Z,43.35
2022-08-17T08:21:23.094Z,43.64
2022-08-17T08:22:22.965Z,42.65
2022-08-17T08:23:22.865Z,42.96
2022-08-17T08:24:23.024Z,44.41
2022-08-17T08:25:23.094Z,44.97
2022-08-17T08:26:22.823Z,44.93
2022-08-17T08:27:22.805Z,44.27
2022-08-17T08:28:22.936Z,45.41
2022-08-17T08:29:22.869Z,46.92
2022-08-17T08:30:22.779Z,45.48
2022-08-17T08:31:22.789Z,44.93
2022-08-17T08:32:22.940Z,43.91
2022-08-17T08:33:22.799Z,43.33
2022-08-17T08:34:49.717Z,43.33
2022-08-17T08:35:22.781Z,42.45
2022-08-17T08:37:13.020Z,43.11
2022-08-17T08:37:32.264Z,43.36
2022-08-17T08:38:22.686Z,43.16
2022-08-17T08:39:22.686Z,42.56
2022-08-17T08:40:23.044Z,41.98
2022-08-17T08:41:22.793Z,42.53
2022-08-17T08:42:22.634Z,43.23
2022-08-17T08:43:22.604Z,43.21
2022-08-17T08:44:22.624Z,42.82
2022-08-17T08:45:22.613Z,43.21
2022-08-17T08:46:22.729Z,42.74
2022-08-17T08:47:22.779Z,43.30
2022-08-17T08:48:46.030Z,43.36
2022-08-17T08:49:34.004Z,41.88
2022-08-17T08:50:30.318Z,42.05
2022-08-17T08:51:22.768Z,40.89
2022-08-17T08:52:22.700Z,42.19
2022-08-17T08:53:22.500Z,42.31
2022-08-17T08:54:27.006Z,43.11
2022-08-17T08:55:22.465Z,42.99
2022-08-17T08:56:22.634Z,42.72
2022-08-17T08:57:26.961Z,42.41
2022-08-17T08:58:32.226Z,44.57
2022-08-17T08:59:22.464Z,45.25
2022-08-17T09:00:22.416Z,43.71
2022-08-17T09:01:22.517Z,44.10
2022-08-17T09:02:22.632Z,43.79
2022-08-17T09:03:36.534Z,45.18
2022-08-17T09:04:25.380Z,44.28
2022-08-17T09:05:22.473Z,44.14
2022-08-17T09:06:33.615Z,42.05
2022-08-17T09:07:22.468Z,42.56
2022-08-17T09:08:22.308Z,42.56
2022-08-17T09:09:22.370Z,42.56
2022-08-17T09:10:22.313Z,42.13
2022-08-17T09:11:22.464Z,40.66
2022-08-17T09:12:22.306Z,41.02
2022-08-17T09:13:22.474Z,41.22
2022-08-17T09:14:22.306Z,42.11
2022-08-17T09:15:22.554Z,43.50
2022-08-17T09:16:22.349Z,42.68
2022-08-17T09:17:22.466Z,43.29
2022-08-17T09:19:00.009Z,42.80
2022-08-17T09:19:22.179Z,45.10
2022-08-17T09:20:27.963Z,44.49
2022-08-17T09:21:22.240Z,43.85
2022-08-17T09:22:22.139Z,45.07
2022-08-17T09:23:22.150Z,45.48
2022-08-17T09:24:22.129Z,44.93
2022-08-17T09:25:22.153Z,43.79
2022-08-17T09:26:22.300Z,43.48
2022-08-17T09:27:22.215Z,42.70
2022-08-17T09:28:22.074Z,43.54
2022-08-17T09:29:22.156Z,44.73
2022-08-17T09:30:23.815Z,43.54
2022-08-17T09:31:22.154Z,44.40
2022-08-17T09:32:22.115Z,43.52
2022-08-17T09:33:22.026Z,43.30
2022-08-17T09:34:22.015Z,42.97
2022-08-17T09:35:22.020Z,42.66
2022-08-17T09:36:21.977Z,42.39
2022-08-17T09:37:22.150Z,42.56
2022-08-17T09:38:22.049Z,42.25
2022-08-17T09:39:22.159Z,41.06
2022-08-17T09:40:22.090Z,41.93
2022-08-17T09:41:22.140Z,43.23
2022-08-17T09:42:21.999Z,43.58
2022-08-17T09:43:21.903Z,42.80
2022-08-17T09:44:23.424Z,42.76
2022-08-17T09:45:22.145Z,41.47
2022-08-17T09:46:21.994Z,41.30
2022-08-17T09:47:22.145Z,41.77
2022-08-17T09:48:21.833Z,41.92
2022-08-17T09:49:25.116Z,40.79
2022-08-17T09:51:05.529Z,41.10
2022-08-17T09:51:21.820Z,42.65
2022-08-17T09:52:21.799Z,43.04
2022-08-17T09:53:21.820Z,42.94
2022-08-17T09:54:38.749Z,42.65
2022-08-17T09:55:21.919Z,43.87
2022-08-17T09:56:21.739Z,43.15
2022-08-17T09:57:30.706Z,41.30
2022-08-17T09:58:21.969Z,42.68
2022-08-17T09:59:21.845Z,41.38
2022-08-17T10:00:21.794Z,42.68
2022-08-17T10:01:21.765Z,43.04
2022-08-17T10:02:21.684Z,43.04
2022-08-17T10:03:21.664Z,42.53
2022-08-17T10:04:23.814Z,43.21
2022-08-17T10:05:21.625Z,43.91
2022-08-17T10:06:22.445Z,44.58
2022-08-17T10:07:21.839Z,44.68
2022-08-17T10:08:21.953Z,45.09
2022-08-17T10:09:21.601Z,45.12
2022-08-17T10:10:21.690Z,43.43
2022-08-17T10:11:21.840Z,43.54
2022-08-17T10:12:21.638Z,43.50
2022-08-17T10:13:21.539Z,42.50
2022-08-17T10:14:36.076Z,41.22
2022-08-17T10:15:21.525Z,41.80
2022-08-17T10:16:21.654Z,41.32
2022-08-17T10:17:21.495Z,41.85
2022-08-17T10:18:21.745Z,41.24
2022-08-17T10:19:21.514Z,42.21
2022-08-17T10:20:21.454Z,42.53
2022-08-17T10:21:21.493Z,42.60
2022-08-17T10:22:34.951Z,40.95
2022-08-17T10:23:21.509Z,41.67
2022-08-17T10:24:21.769Z,39.96
2022-08-17T10:25:24.202Z,40.37
2022-08-17T10:26:21.388Z,39.96
2022-08-17T10:27:21.500Z,40.62
2022-08-17T10:28:24.718Z,40.73
2022-08-17T10:29:21.510Z,41.24
2022-08-17T10:30:21.414Z,42.91
2022-08-17T10:31:36.927Z,41.05
2022-08-17T10:32:21.334Z,40.62
2022-08-17T10:33:21.303Z,40.23
2022-08-17T10:34:21.347Z,39.94
2022-08-17T10:35:21.274Z,40.81
2022-08-17T10:36:21.425Z,41.69
2022-08-17T10:37:21.253Z,40.50
2022-08-17T10:38:21.565Z,39.62
2022-08-17T10:39:21.260Z,39.03
2022-08-17T10:40:21.297Z,39.62
2022-08-17T10:41:21.229Z,39.75
2022-08-17T10:42:30.442Z,39.92
2022-08-17T10:43:21.179Z,40.67
2022-08-17T10:44:38.798Z,39.20
2022-08-17T10:45:21.214Z,38.13
2022-08-17T10:46:30.120Z,39.20
2022-08-17T10:47:21.203Z,38.25
2022-08-17T10:48:21.433Z,38.89
2022-08-17T10:49:21.198Z,38.79
2022-08-17T10:50:21.105Z,38.79
2022-08-17T10:51:21.194Z,39.61
2022-08-17T10:52:21.064Z,38.44
2022-08-17T10:53:21.184Z,39.32
2022-08-17T10:54:21.141Z,38.46
2022-08-17T10:55:21.198Z,38.56
2022-08-17T10:56:21.039Z,39.67
2022-08-17T10:57:21.209Z,39.00
2022-08-17T10:58:21.079Z,40.19
2022-08-17T10:59:20.999Z,39.72
2022-08-17T11:00:25.535Z,39.24
2022-08-17T11:01:21.031Z,40.16
2022-08-17T11:02:21.035Z,39.86
2022-08-17T11:03:21.209Z,41.25
2022-08-17T11:04:21.024Z,39.31
2022-08-17T11:05:20.914Z,39.90
2022-08-17T11:06:21.113Z,40.82
2022-08-17T11:07:20.884Z,41.02
2022-08-17T11:08:21.024Z,41.80
2022-08-17T11:09:20.854Z,42.29
2022-08-17T11:10:21.041Z,42.99
2022-08-17T11:11:20.873Z,43.67
2022-08-17T11:12:21.108Z,42.91
2022-08-17T11:13:20.877Z,42.64
2022-08-17T11:14:21.031Z,43.03
2022-08-17T11:15:20.877Z,43.52
2022-08-17T11:16:21.018Z,44.20
2022-08-17T11:17:20.858Z,44.38
2022-08-17T11:18:20.831Z,42.42
2022-08-17T11:19:20.884Z,42.64
2022-08-17T11:20:21.042Z,42.93
2022-08-17T11:21:20.865Z,43.01
2022-08-17T11:22:20.694Z,43.20
2022-08-17T11:23:20.754Z,42.25
2022-08-17T11:24:20.694Z,43.32
2022-08-17T11:25:20.654Z,43.32
2022-08-17T11:26:20.705Z,42.35
2022-08-17T11:27:20.877Z,42.74
2022-08-17T11:28:20.709Z,43.52
2022-08-17T11:29:20.928Z,44.34
2022-08-17T11:30:20.717Z,43.76
2022-08-17T11:31:20.599Z,44.15
2022-08-17T11:32:20.708Z,43.85
2022-08-17T11:33:20.562Z,43.95
2022-08-17T11:34:20.718Z,44.05
2022-08-17T11:35:20.629Z,43.76
2022-08-17T11:36:20.714Z,42.58
2022-08-17T11:37:20.532Z,44.93
2022-08-17T11:38:20.703Z,43.37
2022-08-17T11:39:20.542Z,42.48
2022-08-17T11:40:20.703Z,42.09
2022-08-17T11:41:20.603Z,43.85
2022-08-17T11:42:20.469Z,43.56
2022-08-17T11:43:20.544Z,44.83
2022-08-17T11:44:20.472Z,44.81
2022-08-17T11:45:31.764Z,41.99
2022-08-17T11:46:20.492Z,41.99
2022-08-17T11:47:20.378Z,41.92
2022-08-17T11:48:28.875Z,42.21
2022-08-17T11:49:20.548Z,43.29
2022-08-17T11:50:23.469Z,43.29
2022-08-17T11:51:21.177Z,45.64
2022-08-17T11:52:20.486Z,43.17
2022-08-17T11:53:20.543Z,43.27
2022-08-17T11:54:32.831Z,42.97
2022-08-17T11:55:35.018Z,42.88
2022-08-17T11:56:20.383Z,43.15
2022-08-17T11:57:20.263Z,41.19
2022-08-17T11:58:20.323Z,41.00
2022-08-17T11:59:20.223Z,41.68
2022-08-17T12:00:20.383Z,38.73
2022-08-17T12:01:20.238Z,40.08
2022-08-17T12:02:20.197Z,40.78
2022-08-17T12:03:20.287Z,40.68
2022-08-17T12:04:20.478Z,41.36
2022-08-17T12:05:20.228Z,40.09
2022-08-17T12:06:20.388Z,40.41
2022-08-17T12:07:20.220Z,41.19
2022-08-17T12:08:20.133Z,42.07
2022-08-17T12:09:20.217Z,41.99
2022-08-17T12:10:20.182Z,42.29
2022-08-17T12:11:58.683Z,41.72
2022-08-17T12:12:20.102Z,41.62
2022-08-17T12:13:20.223Z,42.70
2022-08-17T12:14:26.910Z,42.11
2022-08-17T12:15:20.223Z,41.33
2022-08-17T12:16:20.084Z,40.06
2022-08-17T12:17:39.794Z,39.66
2022-08-17T12:18:20.067Z,40.16
2022-08-17T12:19:20.228Z,40.55
2022-08-17T12:20:20.069Z,42.82
2022-08-17T12:21:19.959Z,42.72
2022-08-17T12:22:20.138Z,41.94
2022-08-17T12:23:20.223Z,42.03
2022-08-17T12:24:20.067Z,41.37
2022-08-17T12:25:19.897Z,42.25
2022-08-17T12:26:19.879Z,41.05
2022-08-17T12:27:19.923Z,40.98
2022-08-17T12:28:20.634Z,42.55
2022-08-17T12:29:35.929Z,42.55
2022-08-17T12:30:19.855Z,43.23
2022-08-17T12:31:19.904Z,42.45
2022-08-17T12:32:19.803Z,41.64
2022-08-17T12:33:24.971Z,41.64
2022-08-17T12:34:20.142Z,42.62
2022-08-17T12:35:19.902Z,41.92
2022-08-17T12:36:19.790Z,41.62
2022-08-17T12:37:19.758Z,40.84
2022-08-17T12:38:26.633Z,42.21
2022-08-17T12:39:21.311Z,41.42
2022-08-17T12:40:19.831Z,41.23
2022-08-17T12:41:19.709Z,41.72
2022-08-17T12:42:19.747Z,40.74
2022-08-17T12:43:19.892Z,42.02
2022-08-17T12:44:19.755Z,42.33
2022-08-17T12:45:20.002Z,43.41
2022-08-17T12:46:19.733Z,42.82
2022-08-17T12:47:22.622Z,42.11
2022-08-17T12:48:19.752Z,40.17
2022-08-17T12:49:19.591Z,40.84
2022-08-17T12:50:29.780Z,40.84
2022-08-17T12:51:19.652Z,41.05
2022-08-17T12:52:19.735Z,42.62